sensor_id;sensor_type;location;lat;lon;timestamp;P1;durP1;ratioP1;P2;durP2;ratioP2
17504;SDS011;8870;50.950;11.762;2022-08-27T00:05:04;626.13;;;47.70;;
17504;SDS011;8870;50.950;11.762;2022-08-27T00:10:13;860.88;;;55.00;;
17504;SDS011;8870;50.950;11.762;2022-08-27T00:15:20;407.10;;;51.47;;
17504;SDS011;8870;50.950;11.762;2022-08-27T00:20:28;202.95;;;48.60;;
17504;SDS011;8870;50.950;11.762;2022-08-27T00:25:35;209.02;;;48.78;;
17504;SDS011;8870;50.950;11.762;2022-08-27T00:30:40;356.83;;;52.22;;
17504;SDS011;8870;50.950;11.762;2022-08-27T00:35:45;52.63;;;34.90;;
17504;SDS011;8870;50.950;11.762;2022-08-27T00:40:53;80.68;;;32.35;;
17504;SDS011;8870;50.950;11.762;2022-08-27T00:46:00;31.92;;;23.85;;
17504;SDS011;8870;50.950;11.762;2022-08-27T00:51:08;25.80;;;19.77;;
17504;SDS011;8870;50.950;11.762;2022-08-27T00:56:18;18.65;;;16.25;;
17504;SDS011;8870;50.950;11.762;2022-08-27T01:01:26;17.75;;;15.85;;
17504;SDS011;8870;50.950;11.762;2022-08-27T01:06:36;40.37;;;23.27;;
17504;SDS011;8870;50.950;11.762;2022-08-27T01:11:43;67.45;;;29.85;;
17504;SDS011;8870;50.950;11.762;2022-08-27T01:16:51;31.48;;;24.58;;
17504;SDS011;8870;50.950;11.762;2022-08-27T01:21:58;26.58;;;22.05;;
17504;SDS011;8870;50.950;11.762;2022-08-27T01:27:27;21.27;;;17.90;;
17504;SDS011;8870;50.950;11.762;2022-08-27T01:32:36;19.02;;;16.40;;
17504;SDS011;8870;50.950;11.762;2022-08-27T01:37:41;17.77;;;15.43;;
17504;SDS011;8870;50.950;11.762;2022-08-27T01:42:55;21.52;;;17.30;;
17504;SDS011;8870;50.950;11.762;2022-08-27T01:48:01;21.13;;;17.35;;
17504;SDS011;8870;50.950;11.762;2022-08-27T01:53:09;18.48;;;15.55;;
17504;SDS011;8870;50.950;11.762;2022-08-27T01:58:19;18.90;;;15.30;;
17504;SDS011;8870;50.950;11.762;2022-08-27T02:03:27;22.02;;;16.92;;
17504;SDS011;8870;50.950;11.762;2022-08-27T02:08:33;20.95;;;16.33;;
17504;SDS011;8870;50.950;11.762;2022-08-27T02:13:41;18.23;;;13.52;;
17504;SDS011;8870;50.950;11.762;2022-08-27T02:18:46;18.30;;;14.55;;
17504;SDS011;8870;50.950;11.762;2022-08-27T02:23:52;20.55;;;14.65;;
17504;SDS011;8870;50.950;11.762;2022-08-27T02:29:00;18.92;;;14.85;;
17504;SDS011;8870;50.950;11.762;2022-08-27T02:34:05;19.23;;;14.55;;
17504;SDS011;8870;50.950;11.762;2022-08-27T02:39:10;23.95;;;18.55;;
17504;SDS011;8870;50.950;11.762;2022-08-27T02:44:17;73.75;;;25.20;;
17504;SDS011;8870;50.950;11.762;2022-08-27T02:49:22;28.00;;;22.30;;
17504;SDS011;8870;50.950;11.762;2022-08-27T02:54:27;29.27;;;22.52;;
17504;SDS011;8870;50.950;11.762;2022-08-27T02:59:35;36.53;;;24.77;;
17504;SDS011;8870;50.950;11.762;2022-08-27T03:04:40;30.13;;;22.58;;
17504;SDS011;8870;50.950;11.762;2022-08-27T03:09:45;27.25;;;21.02;;
17504;SDS011;8870;50.950;11.762;2022-08-27T03:14:53;28.20;;;21.17;;
17504;SDS011;8870;50.950;11.762;2022-08-27T03:19:58;24.92;;;18.52;;
17504;SDS011;8870;50.950;11.762;2022-08-27T03:25:04;25.15;;;18.70;;
17504;SDS011;8870;50.950;11.762;2022-08-27T03:30:15;24.05;;;17.52;;
17504;SDS011;8870;50.950;11.762;2022-08-27T03:35:21;21.23;;;15.70;;
17504;SDS011;8870;50.950;11.762;2022-08-27T03:40:26;19.98;;;15.38;;
17504;SDS011;8870;50.950;11.762;2022-08-27T03:45:35;21.52;;;15.85;;
17504;SDS011;8870;50.950;11.762;2022-08-27T03:51:02;23.58;;;16.10;;
17504;SDS011;8870;50.950;11.762;2022-08-27T03:56:08;19.50;;;14.40;;
17504;SDS011;8870;50.950;11.762;2022-08-27T04:01:16;16.70;;;12.15;;
17504;SDS011;8870;50.950;11.762;2022-08-27T04:06:21;13.50;;;8.63;;
17504;SDS011;8870;50.950;11.762;2022-08-27T04:11:26;10.25;;;6.60;;
17504;SDS011;8870;50.950;11.762;2022-08-27T04:16:33;7.28;;;5.95;;
17504;SDS011;8870;50.950;11.762;2022-08-27T04:21:41;9.23;;;7.05;;
17504;SDS011;8870;50.950;11.762;2022-08-27T04:26:46;12.48;;;9.60;;
17504;SDS011;8870;50.950;11.762;2022-08-27T04:31:53;15.55;;;11.30;;
17504;SDS011;8870;50.950;11.762;2022-08-27T04:36:58;16.15;;;12.25;;
17504;SDS011;8870;50.950;11.762;2022-08-27T04:42:03;13.82;;;10.85;;
17504;SDS011;8870;50.950;11.762;2022-08-27T04:47:11;16.67;;;11.38;;
17504;SDS011;8870;50.950;11.762;2022-08-27T04:52:17;15.65;;;11.82;;
17504;SDS011;8870;50.950;11.762;2022-08-27T04:57:21;11.07;;;8.70;;
17504;SDS011;8870;50.950;11.762;2022-08-27T05:02:29;12.43;;;8.73;;
17504;SDS011;8870;50.950;11.762;2022-08-27T05:07:33;13.50;;;9.77;;
17504;SDS011;8870;50.950;11.762;2022-08-27T05:12:38;17.40;;;10.98;;
17504;SDS011;8870;50.950;11.762;2022-08-27T05:17:47;14.60;;;11.32;;
17504;SDS011;8870;50.950;11.762;2022-08-27T05:22:56;18.75;;;12.70;;
17504;SDS011;8870;50.950;11.762;2022-08-27T05:28:03;18.05;;;12.05;;
17504;SDS011;8870;50.950;11.762;2022-08-27T05:33:11;16.65;;;12.55;;
17504;SDS011;8870;50.950;11.762;2022-08-27T05:38:18;15.02;;;11.07;;
17504;SDS011;8870;50.950;11.762;2022-08-27T05:43:28;19.08;;;12.32;;
17504;SDS011;8870;50.950;11.762;2022-08-27T05:48:35;11.25;;;9.20;;
17504;SDS011;8870;50.950;11.762;2022-08-27T05:53:40;8.10;;;6.15;;
17504;SDS011;8870;50.950;11.762;2022-08-27T05:58:45;9.07;;;5.38;;
17504;SDS011;8870;50.950;11.762;2022-08-27T06:04:06;9.65;;;6.47;;
17504;SDS011;8870;50.950;11.762;2022-08-27T06:09:19;6.47;;;4.95;;
17504;SDS011;8870;50.950;11.762;2022-08-27T06:14:25;9.13;;;6.82;;
17504;SDS011;8870;50.950;11.762;2022-08-27T06:19:33;6.13;;;5.03;;
17504;SDS011;8870;50.950;11.762;2022-08-27T06:24:38;6.63;;;5.20;;
17504;SDS011;8870;50.950;11.762;2022-08-27T06:29:44;15.10;;;5.38;;
17504;SDS011;8870;50.950;11.762;2022-08-27T06:34:51;9.23;;;5.68;;
17504;SDS011;8870;50.950;11.762;2022-08-27T06:39:56;13.05;;;9.38;;
17504;SDS011;8870;50.950;11.762;2022-08-27T06:45:01;13.93;;;8.68;;
17504;SDS011;8870;50.950;11.762;2022-08-27T06:50:09;14.57;;;10.63;;
17504;SDS011;8870;50.950;11.762;2022-08-27T06:55:19;15.32;;;11.55;;
17504;SDS011;8870;50.950;11.762;2022-08-27T07:00:26;15.38;;;11.48;;
17504;SDS011;8870;50.950;11.762;2022-08-27T07:05:36;19.27;;;11.65;;
17504;SDS011;8870;50.950;11.762;2022-08-27T07:10:42;16.73;;;12.68;;
17504;SDS011;8870;50.950;11.762;2022-08-27T07:15:47;15.88;;;12.70;;
17504;SDS011;8870;50.950;11.762;2022-08-27T07:20:54;21.13;;;13.88;;
17504;SDS011;8870;50.950;11.762;2022-08-27T07:26:00;27.98;;;18.02;;
17504;SDS011;8870;50.950;11.762;2022-08-27T07:31:05;28.27;;;20.52;;
17504;SDS011;8870;50.950;11.762;2022-08-27T07:36:16;36.65;;;21.92;;
17504;SDS011;8870;50.950;11.762;2022-08-27T07:41:20;34.03;;;21.95;;
17504;SDS011;8870;50.950;11.762;2022-08-27T07:46:31;36.63;;;23.75;;
17504;SDS011;8870;50.950;11.762;2022-08-27T07:51:43;34.28;;;22.67;;
17504;SDS011;8870;50.950;11.762;2022-08-27T07:56:49;35.75;;;24.65;;
17504;SDS011;8870;50.950;11.762;2022-08-27T08:01:56;38.95;;;26.58;;
17504;SDS011;8870;50.950;11.762;2022-08-27T08:07:03;34.92;;;24.75;;
17504;SDS011;8870;50.950;11.762;2022-08-27T08:12:08;37.08;;;24.92;;
17504;SDS011;8870;50.950;11.762;2022-08-27T08:17:13;35.13;;;24.52;;
17504;SDS011;8870;50.950;11.762;2022-08-27T08:22:20;34.88;;;24.17;;
17504;SDS011;8870;50.950;11.762;2022-08-27T08:27:25;32.13;;;22.05;;
17504;SDS011;8870;50.950;11.762;2022-08-27T08:32:30;31.33;;;22.73;;
17504;SDS011;8870;50.950;11.762;2022-08-27T08:37:37;28.65;;;20.75;;
17504;SDS011;8870;50.950;11.762;2022-08-27T08:42:44;18.13;;;13.18;;
17504;SDS011;8870;50.950;11.762;2022-08-27T08:47:55;22.08;;;15.90;;
17504;SDS011;8870;50.950;11.762;2022-08-27T08:53:18;25.37;;;18.63;;
17504;SDS011;8870;50.950;11.762;2022-08-27T08:58:32;22.70;;;17.80;;
17504;SDS011;8870;50.950;11.762;2022-08-27T09:03:46;24.17;;;16.65;;
17504;SDS011;8870;50.950;11.762;2022-08-27T09:08:59;22.77;;;17.00;;
17504;SDS011;8870;50.950;11.762;2022-08-27T09:20:32;17.33;;;12.80;;
17504;SDS011;8870;50.950;11.762;2022-08-27T09:33:25;18.00;;;12.20;;
17504;SDS011;8870;50.950;11.762;2022-08-27T09:39:09;17.30;;;12.30;;
17504;SDS011;8870;50.950;11.762;2022-08-27T10:23:14;11.73;;;8.23;;
17504;SDS011;8870;50.950;11.762;2022-08-27T10:28:53;12.27;;;8.35;;
17504;SDS011;8870;50.950;11.762;2022-08-27T10:34:17;12.43;;;8.27;;
17504;SDS011;8870;50.950;11.762;2022-08-27T10:39:44;10.90;;;6.50;;
17504;SDS011;8870;50.950;11.762;2022-08-27T10:45:04;9.60;;;6.53;;
17504;SDS011;8870;50.950;11.762;2022-08-27T10:50:32;8.77;;;6.68;;
17504;SDS011;8870;50.950;11.762;2022-08-27T10:55:47;11.10;;;7.32;;
17504;SDS011;8870;50.950;11.762;2022-08-27T11:00:56;13.27;;;7.07;;
17504;SDS011;8870;50.950;11.762;2022-08-27T11:06:09;9.18;;;6.50;;
17504;SDS011;8870;50.950;11.762;2022-08-27T11:11:23;7.32;;;5.90;;
17504;SDS011;8870;50.950;11.762;2022-08-27T11:16:54;7.57;;;5.47;;
17504;SDS011;8870;50.950;11.762;2022-08-27T11:22:03;7.22;;;5.40;;
17504;SDS011;8870;50.950;11.762;2022-08-27T11:27:29;11.90;;;5.78;;
17504;SDS011;8870;50.950;11.762;2022-08-27T11:32:40;13.00;;;4.00;;
17504;SDS011;8870;50.950;11.762;2022-08-27T11:37:57;8.27;;;5.60;;
17504;SDS011;8870;50.950;11.762;2022-08-27T11:43:18;8.25;;;6.10;;
17504;SDS011;8870;50.950;11.762;2022-08-27T11:48:26;10.20;;;7.53;;
17504;SDS011;8870;50.950;11.762;2022-08-27T11:53:35;11.18;;;7.68;;
17504;SDS011;8870;50.950;11.762;2022-08-27T11:58:55;10.73;;;7.20;;
17504;SDS011;8870;50.950;11.762;2022-08-27T12:04:19;8.63;;;6.28;;
17504;SDS011;8870;50.950;11.762;2022-08-27T12:09:27;9.23;;;6.45;;
17504;SDS011;8870;50.950;11.762;2022-08-27T12:14:40;9.00;;;6.50;;
17504;SDS011;8870;50.950;11.762;2022-08-27T12:19:54;9.18;;;6.78;;
17504;SDS011;8870;50.950;11.762;2022-08-27T12:25:11;9.45;;;5.60;;
17504;SDS011;8870;50.950;11.762;2022-08-27T12:30:29;9.20;;;5.68;;
17504;SDS011;8870;50.950;11.762;2022-08-27T12:35:40;8.77;;;5.78;;
17504;SDS011;8870;50.950;11.762;2022-08-27T12:40:49;6.87;;;4.53;;
17504;SDS011;8870;50.950;11.762;2022-08-27T12:46:00;6.30;;;4.38;;
17504;SDS011;8870;50.950;11.762;2022-08-27T12:51:33;6.97;;;4.25;;
17504;SDS011;8870;50.950;11.762;2022-08-27T12:56:43;7.70;;;4.28;;
17504;SDS011;8870;50.950;11.762;2022-08-27T13:02:02;10.85;;;4.10;;
17504;SDS011;8870;50.950;11.762;2022-08-27T13:07:24;5.40;;;3.60;;
17504;SDS011;8870;50.950;11.762;2022-08-27T13:12:38;7.18;;;3.75;;
17504;SDS011;8870;50.950;11.762;2022-08-27T13:17:46;7.25;;;3.53;;
17504;SDS011;8870;50.950;11.762;2022-08-27T13:22:53;5.60;;;3.38;;
17504;SDS011;8870;50.950;11.762;2022-08-27T13:28:00;6.75;;;3.58;;
17504;SDS011;8870;50.950;11.762;2022-08-27T13:33:22;7.30;;;3.28;;
17504;SDS011;8870;50.950;11.762;2022-08-27T13:38:30;5.73;;;3.03;;
17504;SDS011;8870;50.950;11.762;2022-08-27T13:43:37;5.45;;;2.90;;
17504;SDS011;8870;50.950;11.762;2022-08-27T13:48:47;4.95;;;2.70;;
17504;SDS011;8870;50.950;11.762;2022-08-27T13:53:54;4.20;;;2.50;;
17504;SDS011;8870;50.950;11.762;2022-08-27T13:59:12;3.88;;;2.28;;
17504;SDS011;8870;50.950;11.762;2022-08-27T14:04:22;4.72;;;2.35;;
17504;SDS011;8870;50.950;11.762;2022-08-27T14:09:29;4.17;;;2.20;;
17504;SDS011;8870;50.950;11.762;2022-08-27T14:14:34;5.05;;;2.30;;
17504;SDS011;8870;50.950;11.762;2022-08-27T14:19:43;4.97;;;2.42;;
17504;SDS011;8870;50.950;11.762;2022-08-27T14:24:50;4.15;;;2.22;;
17504;SDS011;8870;50.950;11.762;2022-08-27T14:29:55;5.47;;;2.80;;
17504;SDS011;8870;50.950;11.762;2022-08-27T14:35:02;4.25;;;2.67;;
17504;SDS011;8870;50.950;11.762;2022-08-27T14:40:08;4.20;;;2.30;;
17504;SDS011;8870;50.950;11.762;2022-08-27T14:45:15;3.53;;;2.30;;
17504;SDS011;8870;50.950;11.762;2022-08-27T14:50:24;4.82;;;2.45;;
17504;SDS011;8870;50.950;11.762;2022-08-27T14:55:29;3.75;;;2.00;;
17504;SDS011;8870;50.950;11.762;2022-08-27T15:00:35;4.15;;;2.20;;
17504;SDS011;8870;50.950;11.762;2022-08-27T15:05:43;4.40;;;1.98;;
17504;SDS011;8870;50.950;11.762;2022-08-27T15:10:53;2.55;;;2.00;;
17504;SDS011;8870;50.950;11.762;2022-08-27T15:15:58;5.28;;;2.30;;
17504;SDS011;8870;50.950;11.762;2022-08-27T15:21:08;4.43;;;2.25;;
17504;SDS011;8870;50.950;11.762;2022-08-27T15:26:13;4.57;;;2.50;;
17504;SDS011;8870;50.950;11.762;2022-08-27T15:31:18;4.50;;;2.53;;
17504;SDS011;8870;50.950;11.762;2022-08-27T15:36:26;5.45;;;2.60;;
17504;SDS011;8870;50.950;11.762;2022-08-27T15:41:32;3.38;;;2.10;;
17504;SDS011;8870;50.950;11.762;2022-08-27T15:46:57;4.30;;;2.22;;
17504;SDS011;8870;50.950;11.762;2022-08-27T15:52:05;6.55;;;2.17;;
17504;SDS011;8870;50.950;11.762;2022-08-27T15:57:16;3.88;;;2.22;;
17504;SDS011;8870;50.950;11.762;2022-08-27T16:02:21;3.70;;;2.15;;
17504;SDS011;8870;50.950;11.762;2022-08-27T16:07:30;3.72;;;2.15;;
17504;SDS011;8870;50.950;11.762;2022-08-27T16:12:34;4.25;;;1.90;;
17504;SDS011;8870;50.950;11.762;2022-08-27T16:17:39;3.30;;;1.85;;
17504;SDS011;8870;50.950;11.762;2022-08-27T16:22:47;2.85;;;1.67;;
17504;SDS011;8870;50.950;11.762;2022-08-27T16:33:08;3.92;;;1.50;;
17504;SDS011;8870;50.950;11.762;2022-08-27T16:38:17;3.03;;;1.60;;
17504;SDS011;8870;50.950;11.762;2022-08-27T16:43:23;2.28;;;1.65;;
17504;SDS011;8870;50.950;11.762;2022-08-27T16:48:29;2.75;;;1.63;;
17504;SDS011;8870;50.950;11.762;2022-08-27T16:53:49;4.10;;;1.60;;
17504;SDS011;8870;50.950;11.762;2022-08-27T16:58:54;2.83;;;1.70;;
17504;SDS011;8870;50.950;11.762;2022-08-27T17:03:59;5.63;;;1.70;;
17504;SDS011;8870;50.950;11.762;2022-08-27T17:09:19;3.05;;;1.42;;
17504;SDS011;8870;50.950;11.762;2022-08-27T17:14:24;2.90;;;1.50;;
17504;SDS011;8870;50.950;11.762;2022-08-27T17:19:29;4.75;;;1.70;;
17504;SDS011;8870;50.950;11.762;2022-08-27T17:24:38;2.08;;;1.38;;
17504;SDS011;8870;50.950;11.762;2022-08-27T17:29:43;3.55;;;1.58;;
17504;SDS011;8870;50.950;11.762;2022-08-27T17:34:47;2.92;;;1.80;;
17504;SDS011;8870;50.950;11.762;2022-08-27T17:39:55;3.60;;;1.42;;
17504;SDS011;8870;50.950;11.762;2022-08-27T17:45:00;2.45;;;1.80;;
17504;SDS011;8870;50.950;11.762;2022-08-27T17:50:07;3.63;;;1.80;;
17504;SDS011;8870;50.950;11.762;2022-08-27T17:55:15;2.97;;;2.03;;
17504;SDS011;8870;50.950;11.762;2022-08-27T18:00:20;3.33;;;1.80;;
17504;SDS011;8870;50.950;11.762;2022-08-27T18:05:25;4.13;;;2.15;;
17504;SDS011;8870;50.950;11.762;2022-08-27T18:10:33;3.38;;;2.08;;
17504;SDS011;8870;50.950;11.762;2022-08-27T18:15:39;3.25;;;1.90;;
17504;SDS011;8870;50.950;11.762;2022-08-27T18:20:46;4.55;;;1.90;;
17504;SDS011;8870;50.950;11.762;2022-08-27T18:25:55;3.33;;;2.20;;
17504;SDS011;8870;50.950;11.762;2022-08-27T18:31:00;4.93;;;2.00;;
17504;SDS011;8870;50.950;11.762;2022-08-27T18:36:07;5.03;;;2.40;;
17504;SDS011;8870;50.950;11.762;2022-08-27T18:41:15;4.32;;;2.20;;
17504;SDS011;8870;50.950;11.762;2022-08-27T18:46:20;3.63;;;2.20;;
17504;SDS011;8870;50.950;11.762;2022-08-27T18:51:25;4.68;;;2.35;;
17504;SDS011;8870;50.950;11.762;2022-08-27T18:56:41;3.50;;;2.10;;
17504;SDS011;8870;50.950;11.762;2022-08-27T19:01:46;4.30;;;2.30;;
17504;SDS011;8870;50.950;11.762;2022-08-27T19:06:52;5.00;;;2.25;;
17504;SDS011;8870;50.950;11.762;2022-08-27T19:11:59;4.03;;;2.38;;
17504;SDS011;8870;50.950;11.762;2022-08-27T19:17:04;5.47;;;2.70;;
17504;SDS011;8870;50.950;11.762;2022-08-27T19:22:10;7.40;;;2.45;;
17504;SDS011;8870;50.950;11.762;2022-08-27T19:27:20;4.70;;;2.40;;
17504;SDS011;8870;50.950;11.762;2022-08-27T19:37:38;4.90;;;2.70;;
17504;SDS011;8870;50.950;11.762;2022-08-27T19:47:59;6.68;;;3.13;;
17504;SDS011;8870;50.950;11.762;2022-08-27T19:53:04;4.70;;;2.67;;
17504;SDS011;8870;50.950;11.762;2022-08-27T19:58:16;5.18;;;2.90;;
17504;SDS011;8870;50.950;11.762;2022-08-27T20:03:22;6.00;;;2.90;;
17504;SDS011;8870;50.950;11.762;2022-08-27T20:08:27;7.25;;;2.90;;
17504;SDS011;8870;50.950;11.762;2022-08-27T20:13:34;6.40;;;3.10;;
17504;SDS011;8870;50.950;11.762;2022-08-27T20:18:51;7.95;;;3.20;;
17504;SDS011;8870;50.950;11.762;2022-08-27T20:24:01;7.10;;;2.88;;
17504;SDS011;8870;50.950;11.762;2022-08-27T20:29:09;6.28;;;2.90;;
17504;SDS011;8870;50.950;11.762;2022-08-27T20:34:35;4.35;;;2.90;;
17504;SDS011;8870;50.950;11.762;2022-08-27T20:39:39;7.35;;;3.13;;
17504;SDS011;8870;50.950;11.762;2022-08-27T20:44:47;6.22;;;2.70;;
17504;SDS011;8870;50.950;11.762;2022-08-27T20:49:52;6.97;;;2.67;;
17504;SDS011;8870;50.950;11.762;2022-08-27T20:54:58;9.00;;;2.53;;
17504;SDS011;8870;50.950;11.762;2022-08-27T21:00:05;5.32;;;2.75;;
17504;SDS011;8870;50.950;11.762;2022-08-27T21:05:24;7.40;;;2.67;;
17504;SDS011;8870;50.950;11.762;2022-08-27T21:10:29;7.40;;;2.58;;
17504;SDS011;8870;50.950;11.762;2022-08-27T21:15:36;8.45;;;2.47;;
17504;SDS011;8870;50.950;11.762;2022-08-27T21:20:41;7.03;;;2.67;;
17504;SDS011;8870;50.950;11.762;2022-08-27T21:25:46;6.47;;;2.60;;
17504;SDS011;8870;50.950;11.762;2022-08-27T21:30:54;8.63;;;2.70;;
17504;SDS011;8870;50.950;11.762;2022-08-27T21:35:59;8.85;;;2.80;;
17504;SDS011;8870;50.950;11.762;2022-08-27T21:41:04;5.25;;;2.53;;
17504;SDS011;8870;50.950;11.762;2022-08-27T21:46:12;5.95;;;2.55;;
17504;SDS011;8870;50.950;11.762;2022-08-27T21:51:17;6.63;;;2.95;;
17504;SDS011;8870;50.950;11.762;2022-08-27T21:56:25;6.15;;;2.60;;
17504;SDS011;8870;50.950;11.762;2022-08-27T22:01:33;9.10;;;2.70;;
17504;SDS011;8870;50.950;11.762;2022-08-27T22:06:38;6.60;;;2.42;;
17504;SDS011;8870;50.950;11.762;2022-08-27T22:11:43;8.95;;;2.85;;
17504;SDS011;8870;50.950;11.762;2022-08-27T22:16:50;10.23;;;2.70;;
17504;SDS011;8870;50.950;11.762;2022-08-27T22:21:55;6.22;;;2.42;;
17504;SDS011;8870;50.950;11.762;2022-08-27T22:27:00;7.38;;;2.30;;
17504;SDS011;8870;50.950;11.762;2022-08-27T22:32:07;7.70;;;2.67;;
17504;SDS011;8870;50.950;11.762;2022-08-27T22:37:12;6.85;;;2.28;;
17504;SDS011;8870;50.950;11.762;2022-08-27T22:42:17;9.32;;;2.55;;
17504;SDS011;8870;50.950;11.762;2022-08-27T22:47:24;8.02;;;2.40;;
17504;SDS011;8870;50.950;11.762;2022-08-27T22:52:29;7.78;;;2.28;;
17504;SDS011;8870;50.950;11.762;2022-08-27T22:57:34;5.47;;;2.17;;
17504;SDS011;8870;50.950;11.762;2022-08-27T23:02:41;6.88;;;2.20;;
17504;SDS011;8870;50.950;11.762;2022-08-27T23:07:46;7.45;;;2.35;;
17504;SDS011;8870;50.950;11.762;2022-08-27T23:12:51;6.55;;;2.30;;
17504;SDS011;8870;50.950;11.762;2022-08-27T23:17:59;7.65;;;2.53;;
17504;SDS011;8870;50.950;11.762;2022-08-27T23:23:04;7.15;;;2.30;;
17504;SDS011;8870;50.950;11.762;2022-08-27T23:28:11;9.32;;;2.40;;
17504;SDS011;8870;50.950;11.762;2022-08-27T23:33:20;7.78;;;2.30;;
17504;SDS011;8870;50.950;11.762;2022-08-27T23:38:25;6.75;;;2.10;;
17504;SDS011;8870;50.950;11.762;2022-08-27T23:43:30;8.65;;;2.50;;
17504;SDS011;8870;50.950;11.762;2022-08-27T23:48:38;9.00;;;2.20;;
17504;SDS011;8870;50.950;11.762;2022-08-27T23:53:42;7.05;;;2.20;;
17504;SDS011;8870;50.950;11.762;2022-08-27T23:58:47;8.00;;;2.10;;
